Etusivu
METAR-TAF:

METAR-TAF

Lentoasemat :

Brenham Municipal Airport

Brenham, Texas, Yhdysvallat

Leveyspiiri: 30-13-08N, Pituuspiiri: 096-22-27W, korkeus merenpinnasta: 94 m

Tämänhetkinen sää

Tämä raportti tehtiin 12 minuuttia sitten, kello 09.55 UTC
Tuuli 5 kn lännestä/lounaasta
Lämpötila 20°C
Kosteus 94%
Ilmanpaine 1017 hPa
Näkyvyys: 8.0 km
Pilvistä 400 ft:n korkeudessa
utua

METAR: K11R 060955Z AUTO 25005KT 5SM BR OVC004 20/19 A3003 RMK AO2 T01970193

Aika: 04:07 (10:07 UTC)


TAF: puuttuu

Säähavainnot ja -ennusteet yli 4000 lentoasemalta (METAR- ja TAF-raportit).

Käytössä olevat sääasemat on merkitty karttaan keltaisilla ja punaisilla pisteillä.

Aseta hiiri pisteen päälle nähdäksesi sääaseman nimen.

Klikkaa sitten nähdäksesi säähavainnot ja -ennusteet.

Kartan vaihtaminen: klikkaa mustalla rastilla varustettuja vihreitä pisteitä, niin voit zoomata sisään; viivalla varustettua vihreää pistettä, niin voit zoomata ulos tai vihreitä nuolia, niin pääset viereisille kartoille.


METAR-TAF: